Time;durP1;ratioP1;P1;durP2;ratioP2;P2;SDS_P1;SDS_P2;PMS_P1;PMS_P2;Temp;Humidity;BMP_temperature;BMP_pressure;BME280_temperature;BME280_humidity;BME280_pressure;Samples;Min_cycle;Max_cycle;Signal;HPM_P1;HPM_P2
2022/08/07 00:02:11;;;;;;;11.27;6.85;;;13.40;99.90;;;;;;5056201;28;20059;-59
2022/08/07 00:04:37;;;;;;;10.30;6.07;;;13.40;99.90;;;;;;5037074;28;20142;-60
2022/08/07 00:07:03;;;;;;;11.90;6.90;;;14.00;99.90;;;;;;5055609;28;20124;-60
2022/08/07 00:09:28;;;;;;;9.93;6.53;;;13.30;99.90;;;;;;5037688;28;20037;-59
2022/08/07 00:11:54;;;;;;;10.73;6.93;;;13.30;99.90;;;;;;5054472;28;20040;-60
2022/08/07 00:14:20;;;;;;;9.77;7.20;;;13.30;99.90;;;;;;5055928;28;20071;-60
2022/08/07 00:16:46;;;;;;;9.77;6.20;;;13.20;99.90;;;;;;5037278;28;20076;-59
2022/08/07 00:19:11;;;;;;;10.77;7.25;;;13.20;99.90;;;;;;5055018;28;20449;-59
2022/08/07 00:21:37;;;;;;;8.60;5.75;;;13.20;99.90;;;;;;5055268;28;20053;-59
2022/08/07 00:24:03;;;;;;;10.27;6.40;;;13.20;99.90;;;;;;5055301;28;20072;-59
2022/08/07 00:26:28;;;;;;;10.38;5.55;;;13.10;99.90;;;;;;5054409;28;20394;-60
2022/08/07 00:28:54;;;;;;;9.02;5.97;;;13.10;99.90;;;;;;5037406;28;20051;-59
2022/08/07 00:31:20;;;;;;;10.07;6.43;;;13.10;99.90;;;;;;5054632;28;20116;-59
2022/08/07 00:33:45;;;;;;;8.68;6.00;;;13.10;99.90;;;;;;5036871;28;20036;-59
2022/08/07 00:36:11;;;;;;;10.38;6.40;;;13.50;99.90;;;;;;5037636;28;20112;-59
2022/08/07 00:38:38;;;;;;;9.85;6.18;;;13.10;99.90;;;;;;5054164;28;20055;-59
2022/08/07 00:41:05;;;;;;;9.25;6.28;;;13.00;99.90;;;;;;5054852;28;20040;-59
2022/08/07 00:43:31;;;;;;;9.68;6.38;;;13.00;99.90;;;;;;5054779;28;20474;-60
2022/08/07 00:46:01;;;;;;;10.40;5.90;;;13.30;99.90;;;;;;5054352;28;20083;-60
2022/08/07 00:48:27;;;;;;;7.13;5.30;;;13.20;99.90;;;;;;5037117;28;20072;-60
2022/08/07 00:50:53;;;;;;;9.73;6.30;;;13.60;99.90;;;;;;5054820;28;20084;-60
2022/08/07 00:53:19;;;;;;;10.50;5.97;;;13.00;99.90;;;;;;5036591;28;20114;-60
2022/08/07 00:55:45;;;;;;;11.65;6.57;;;13.40;99.90;;;;;;5054201;28;20072;-60
2022/08/07 00:58:11;;;;;;;10.07;6.20;;;13.10;99.90;;;;;;5054837;28;20068;-60
2022/08/07 01:00:36;;;;;;;11.07;6.97;;;13.60;99.90;;;;;;5053944;28;20037;-60
2022/08/07 01:03:02;;;;;;;11.27;7.63;;;13.00;99.90;;;;;;5054070;28;20086;-60
2022/08/07 01:05:30;;;;;;;9.15;6.38;;;13.00;99.90;;;;;;5035513;28;20051;-60
2022/08/07 01:07:56;;;;;;;11.90;7.40;;;13.00;99.90;;;;;;5053004;28;20063;-60
2022/08/07 01:10:21;;;;;;;10.15;6.53;;;13.40;99.90;;;;;;5036520;28;20042;-60
2022/08/07 01:12:48;;;;;;;8.20;5.88;;;13.20;99.90;;;;;;5054216;28;20041;-59
2022/08/07 01:15:14;;;;;;;9.88;5.95;;;13.10;99.90;;;;;;5053961;28;20044;-59
2022/08/07 01:17:40;;;;;;;9.55;6.40;;;12.90;99.90;;;;;;5054331;28;20045;-60
2022/08/07 01:20:11;;;;;;;10.98;6.25;;;12.90;99.90;;;;;;5054226;28;20363;-60
2022/08/07 01:22:37;;;;;;;7.78;5.32;;;;;;;;;;5035364;28;20594;-60
2022/08/07 01:25:03;;;;;;;8.75;5.90;;;;;;;;;;5053964;28;20129;-60
2022/08/07 01:27:30;;;;;;;10.55;6.45;;;;;;;;;;5036261;28;20044;-60
2022/08/07 01:29:56;;;;;;;9.13;5.40;;;;;;;;;;5053309;28;20546;-60
2022/08/07 01:32:22;;;;;;;10.98;6.03;;;;;;;;;;5036368;28;20045;-60
2022/08/07 01:34:49;;;;;;;10.85;5.90;;;;;;;;;;5053033;28;20037;-60
2022/08/07 01:37:16;;;;;;;10.50;6.68;;;;;;;;;;5053805;28;20052;-60
2022/08/07 01:39:43;;;;;;;10.85;6.25;;;;;;;;;;5053725;28;20404;-60
2022/08/07 01:42:09;;;;;;;9.23;6.20;;;;;;;;;;5053514;28;20037;-60
2022/08/07 01:44:35;;;;;;;7.97;5.50;;;;;;;;;;5053813;28;20037;-60
2022/08/07 01:47:01;;;;;;;9.48;6.45;;;;;;;;;;5035789;28;20087;-59
2022/08/07 01:49:27;;;;;;;9.20;6.00;;;;;;;;;;5052862;28;20052;-60
2022/08/07 01:51:54;;;;;;;11.90;6.78;;;;;;;;;;5035594;28;20045;-60
2022/08/07 01:54:21;;;;;;;9.98;6.03;;;;;;;;;;5036079;28;20045;-60
2022/08/07 01:56:47;;;;;;;9.52;6.35;;;;;;;;;;5034617;28;20509;-60
2022/08/07 01:59:23;;;;;;;9.50;5.55;;;;;;;;;;5036001;28;20075;-60
2022/08/07 02:01:53;;;;;;;8.52;5.80;;;;;;;;;;5053403;28;20037;-60
2022/08/07 02:04:24;;;;;;;9.30;6.15;;;;;;;;;;5035335;28;20033;-60
2022/08/07 02:06:51;;;;;;;8.68;5.70;;;;;;;;;;5053438;28;20068;-60
2022/08/07 02:09:18;;;;;;;10.55;6.13;;;;;;;;;;5053840;28;20098;-60
2022/08/07 02:11:45;;;;;;;9.13;6.10;;;;;;;;;;5034521;28;20045;-60
2022/08/07 02:14:12;;;;;;;10.10;6.38;;;;;;;;;;5019137;28;20072;-60
2022/08/07 02:16:39;;;;;;;9.38;6.55;;;;;;;;;;5052727;28;20393;-60
2022/08/07 02:19:10;;;;;;;8.38;5.50;;;;;;;;;;5034997;28;20110;-60
2022/08/07 02:21:38;;;;;;;9.65;6.22;;;;;;;;;;5053041;28;20053;-60
2022/08/07 02:24:04;;;;;;;10.50;6.80;;;;;;;;;;5052298;28;20075;-60
2022/08/07 02:26:31;;;;;;;10.10;6.75;;;;;;;;;;5035238;28;20049;-60
2022/08/07 02:28:57;;;;;;;9.07;6.43;;;;;;;;;;5035500;28;20128;-60
2022/08/07 02:31:24;;;;;;;8.98;5.97;;;12.70;99.90;;;;;;5034198;28;20056;-60
2022/08/07 02:33:52;;;;;;;10.70;6.82;;;12.60;99.90;;;;;;5052655;28;20505;-60
2022/08/07 02:36:18;;;;;;;9.40;6.07;;;12.60;99.90;;;;;;5035517;28;20045;-60
2022/08/07 02:38:46;;;;;;;10.15;6.80;;;12.50;99.90;;;;;;5034129;28;20131;-60
2022/08/07 02:41:12;;;;;;;10.63;6.93;;;12.60;99.90;;;;;;5035585;28;20098;-60
2022/08/07 02:43:40;;;;;;;9.82;6.53;;;12.10;99.90;;;;;;5052733;28;20044;-60
2022/08/07 02:46:07;;;;;;;12.23;7.30;;;12.30;99.90;;;;;;5017339;28;20048;-59
2022/08/07 02:48:33;;;;;;;13.07;8.45;;;12.30;99.90;;;;;;5052733;28;20051;-59
2022/08/07 02:51:02;;;;;;;14.05;9.50;;;12.30;99.90;;;;;;5034583;28;20041;-59
2022/08/07 02:53:32;;;;;;;13.75;9.90;;;12.30;99.90;;;;;;5033821;28;20083;-59
2022/08/07 02:56:00;;;;;;;12.02;9.10;;;12.30;99.90;;;;;;5034936;28;20120;-59
2022/08/07 02:58:27;;;;;;;15.13;9.35;;;12.30;99.90;;;;;;5034612;28;20563;-59
2022/08/07 03:00:56;;;;;;;18.13;11.38;;;12.30;99.90;;;;;;5033916;28;20409;-59
2022/08/07 03:03:25;;;;;;;17.92;11.45;;;12.20;99.90;;;;;;5034479;28;20041;-59
2022/08/07 03:05:53;;;;;;;19.92;11.90;;;12.20;99.90;;;;;;5052240;28;20493;-59
2022/08/07 03:08:19;;;;;;;17.50;12.48;;;12.30;99.90;;;;;;5034034;28;20045;-59
2022/08/07 03:10:45;;;;;;;17.80;11.27;;;12.20;99.90;;;;;;5034318;28;20057;-59
2022/08/07 03:13:13;;;;;;;18.35;13.68;;;12.20;99.90;;;;;;5033879;28;20042;-59
2022/08/07 03:15:40;;;;;;;19.23;11.60;;;12.20;99.90;;;;;;5052080;28;20379;-59
2022/08/07 03:18:06;;;;;;;19.70;12.02;;;12.30;99.90;;;;;;5034340;28;20509;-59
2022/08/07 03:20:32;;;;;;;18.20;12.45;;;12.20;99.90;;;;;;5033260;28;20064;-59
2022/08/07 03:22:58;;;;;;;17.00;12.20;;;12.20;99.90;;;;;;5034236;28;20053;-59
2022/08/07 03:25:28;;;;;;;17.45;12.18;;;12.30;99.90;;;;;;5052067;28;20038;-59
2022/08/07 03:27:55;;;;;;;18.20;11.93;;;12.20;99.90;;;;;;5032666;28;20048;-59
2022/08/07 03:30:21;;;;;;;17.73;11.27;;;12.20;99.90;;;;;;5034322;28;20051;-59
2022/08/07 03:32:48;;;;;;;18.58;11.07;;;12.20;99.90;;;;;;5034100;28;20052;-59
2022/08/07 03:35:18;;;;;;;15.57;10.52;;;12.20;99.90;;;;;;5017065;28;20072;-59
2022/08/07 03:37:47;;;;;;;15.55;8.98;;;12.20;99.90;;;;;;5034051;28;20060;-59
2022/08/07 03:40:13;;;;;;;13.25;9.57;;;12.20;99.90;;;;;;5052080;28;20120;-59
2022/08/07 03:42:39;;;;;;;13.25;9.18;;;12.20;99.90;;;;;;5017117;28;20120;-59
2022/08/07 03:45:05;;;;;;;13.32;9.18;;;12.20;99.90;;;;;;5051886;28;20037;-59
2022/08/07 03:47:31;;;;;;;12.57;7.53;;;12.10;99.90;;;;;;5017269;28;20061;-59
2022/08/07 03:49:57;;;;;;;16.58;9.45;;;12.10;99.90;;;;;;5033079;28;20117;-59
2022/08/07 03:52:26;;;;;;;15.60;8.10;;;12.10;99.90;;;;;;5051764;28;20060;-59
2022/08/07 03:54:55;;;;;;;12.57;7.18;;;12.10;99.90;;;;;;5051578;28;20040;-59
2022/08/07 03:57:23;;;;;;;10.90;6.70;;;12.10;99.90;;;;;;5032979;28;20107;-59
2022/08/07 03:59:49;;;;;;;10.88;6.72;;;12.10;99.90;;;;;;5051533;28;20474;-59
2022/08/07 04:02:15;;;;;;;8.63;6.28;;;12.10;99.90;;;;;;5051752;28;20037;-59
2022/08/07 04:04:43;;;;;;;10.55;6.13;;;12.00;99.90;;;;;;5033436;28;20469;-59
2022/08/07 04:07:09;;;;;;;12.15;7.00;;;12.00;99.90;;;;;;5034024;28;20045;-59
2022/08/07 04:09:35;;;;;;;9.77;6.07;;;12.00;99.90;;;;;;5032941;28;20094;-59
2022/08/07 04:12:02;;;;;;;13.50;6.68;;;12.00;99.90;;;;;;5051827;28;20047;-59
2022/08/07 04:14:28;;;;;;;9.77;6.03;;;12.00;99.90;;;;;;5051607;28;20087;-59
2022/08/07 04:16:54;;;;;;;11.15;7.25;;;12.00;99.90;;;;;;5050402;28;20493;-59
2022/08/07 04:19:19;;;;;;;9.55;6.35;;;12.00;99.90;;;;;;5033982;28;20076;-59
2022/08/07 04:21:45;;;;;;;8.38;5.30;;;12.00;99.90;;;;;;5033016;28;20133;-59
2022/08/07 04:24:12;;;;;;;9.70;6.32;;;12.10;99.90;;;;;;5051055;28;20080;-59
2022/08/07 04:26:38;;;;;;;8.65;6.13;;;12.10;99.90;;;;;;5033657;28;20516;-59
2022/08/07 04:29:06;;;;;;;9.13;6.40;;;12.10;99.90;;;;;;5033482;28;20510;-59
2022/08/07 04:31:32;;;;;;;9.85;6.90;;;12.10;99.90;;;;;;5016365;28;20098;-59
2022/08/07 04:33:58;;;;;;;9.63;5.85;;;12.10;99.90;;;;;;5051232;28;20032;-59
2022/08/07 04:36:24;;;;;;;9.43;5.85;;;12.10;99.90;;;;;;5051197;28;20506;-59
2022/08/07 04:38:50;;;;;;;9.52;6.13;;;12.10;99.90;;;;;;5034692;28;20074;-59
2022/08/07 04:41:16;;;;;;;9.10;6.15;;;12.10;99.90;;;;;;5055476;28;20037;-59
2022/08/07 04:43:45;;;;;;;9.50;5.93;;;12.10;99.90;;;;;;5037120;28;20124;-59
2022/08/07 04:46:33;;;;;;;10.77;6.78;;;12.10;99.90;;;;;;5036453;28;20492;-59
2022/08/07 04:49:02;;;;;;;9.55;6.60;;;12.10;99.90;;;;;;5054776;28;20566;-59
2022/08/07 04:51:58;;;;;;;10.38;6.30;;;12.10;99.90;;;;;;5037236;28;20044;-59
2022/08/07 04:54:37;;;;;;;9.75;5.93;;;12.20;99.90;;;;;;5054918;28;20044;-59
2022/08/07 04:57:05;;;;;;;14.13;5.90;;;12.20;99.90;;;;;;5036592;28;20049;-59
2022/08/07 04:59:59;;;;;;;8.85;5.75;;;12.20;99.90;;;;;;5035939;28;20054;-59
2022/08/07 05:03:00;;;;;;;8.90;6.10;;;12.30;99.90;;;;;;5037266;28;20041;-59
2022/08/07 05:05:34;;;;;;;8.73;5.88;;;12.40;99.90;;;;;;5019605;28;20049;-59
2022/08/07 05:08:11;;;;;;;9.50;6.30;;;12.40;99.90;;;;;;5054964;28;20052;-59
2022/08/07 05:10:40;;;;;;;8.27;5.57;;;12.50;99.90;;;;;;5054611;28;20041;-59
2022/08/07 05:13:13;;;;;;;10.43;5.90;;;12.50;99.90;;;;;;5053694;28;20059;-59
2022/08/07 05:15:42;;;;;;;8.90;6.03;;;12.60;99.90;;;;;;5036481;28;20045;-59
2022/08/07 05:18:17;;;;;;;9.82;6.18;;;12.70;99.90;;;;;;5036771;28;20048;-59
2022/08/07 05:20:47;;;;;;;9.95;5.63;;;12.80;99.90;;;;;;5035519;28;20098;-59
2022/08/07 05:23:18;;;;;;;8.88;6.25;;;12.90;99.90;;;;;;5037050;28;20045;-59
2022/08/07 05:25:44;;;;;;;11.07;6.95;;;13.00;99.90;;;;;;5054114;28;20051;-59
2022/08/07 05:28:17;;;;;;;8.75;5.72;;;13.10;99.90;;;;;;5053681;28;20045;-59
2022/08/07 05:30:44;;;;;;;10.18;6.70;;;13.20;99.90;;;;;;5036099;28;20060;-59
2022/08/07 05:33:12;;;;;;;9.57;5.82;;;13.30;99.90;;;;;;5036518;28;20037;-59
2022/08/07 05:35:39;;;;;;;9.70;6.05;;;13.30;99.90;;;;;;5035440;28;20079;-59
2022/08/07 05:38:06;;;;;;;12.20;6.25;;;14.00;99.90;;;;;;5053921;28;20041;-59
2022/08/07 05:40:35;;;;;;;10.05;6.15;;;13.60;99.90;;;;;;5053883;28;20037;-60
2022/08/07 05:43:01;;;;;;;9.68;5.85;;;;;;;;;;5035330;28;20068;-60
2022/08/07 05:45:28;;;;;;;9.32;5.60;;;14.00;99.90;;;;;;5053730;28;20095;-59
2022/08/07 05:47:54;;;;;;;10.40;7.07;;;14.00;99.90;;;;;;5053187;28;20129;-59
2022/08/07 05:50:21;;;;;;;9.07;5.85;;;14.20;99.90;;;;;;5035728;28;20036;-59
2022/08/07 05:52:47;;;;;;;10.05;6.10;;;14.40;99.90;;;;;;5053717;28;20048;-59
2022/08/07 05:55:13;;;;;;;11.02;6.38;;;14.40;99.90;;;;;;5018725;28;20045;-59
2022/08/07 05:57:41;;;;;;;9.07;5.45;;;14.60;99.90;;;;;;5053418;28;20159;-59
2022/08/07 06:00:07;;;;;;;8.77;5.75;;;14.70;99.90;;;;;;5035696;28;20045;-59
2022/08/07 06:02:35;;;;;;;9.75;6.35;;;14.90;99.90;;;;;;5051240;28;20094;-59
2022/08/07 06:05:10;;;;;;;8.50;5.20;;;14.90;99.90;;;;;;5050189;28;20390;-59
2022/08/07 06:07:39;;;;;;;8.05;4.85;;;15.10;99.90;;;;;;5035537;28;20055;-59
2022/08/07 06:10:05;;;;;;;8.93;5.38;;;15.20;99.90;;;;;;5052534;28;20079;-59
2022/08/07 06:12:31;;;;;;;9.48;5.63;;;15.30;99.90;;;;;;5053058;28;20375;-59
2022/08/07 06:14:57;;;;;;;9.60;5.70;;;15.40;99.90;;;;;;5053036;28;20120;-59
2022/08/07 06:17:25;;;;;;;9.30;5.40;;;15.50;99.90;;;;;;5047280;28;20128;-60
2022/08/07 06:19:52;;;;;;;8.40;5.18;;;15.60;99.90;;;;;;5032063;28;20049;-59
2022/08/07 06:22:18;;;;;;;10.50;4.25;;;15.70;99.90;;;;;;5033331;28;20060;-59
2022/08/07 06:24:45;;;;;;;8.48;5.32;;;15.80;99.90;;;;;;5014438;28;20041;-59
2022/08/07 06:27:22;;;;;;;9.43;5.03;;;15.90;99.90;;;;;;5015588;28;20049;-59
2022/08/07 06:29:48;;;;;;;7.45;4.57;;;16.00;99.90;;;;;;5033323;28;20041;-59
2022/08/07 06:32:13;;;;;;;7.78;4.90;;;16.10;99.90;;;;;;5041488;28;20513;-59
2022/08/07 06:34:39;;;;;;;8.57;4.85;;;16.20;99.90;;;;;;5052776;28;20043;-59
2022/08/07 06:37:05;;;;;;;8.30;4.10;;;16.30;99.90;;;;;;5052131;28;20033;-59
2022/08/07 06:39:33;;;;;;;9.95;4.60;;;16.80;99.90;;;;;;5034009;28;20044;-59
2022/08/07 06:42:06;;;;;;;8.35;4.63;;;16.60;99.90;;;;;;5051882;28;20072;-59
2022/08/07 06:44:33;;;;;;;8.05;4.25;;;16.60;99.90;;;;;;5036723;28;20044;-60
2022/08/07 06:46:59;;;;;;;6.40;3.85;;;16.70;99.90;;;;;;5038866;28;20037;-59
2022/08/07 06:49:25;;;;;;;7.00;4.03;;;16.80;99.90;;;;;;5032386;28;20033;-59
2022/08/07 06:51:52;;;;;;;7.10;3.38;;;16.90;99.90;;;;;;5014689;28;20379;-60
2022/08/07 06:54:20;;;;;;;5.95;3.00;;;16.90;99.90;;;;;;5015482;28;20080;-59
2022/08/07 06:56:49;;;;;;;5.97;3.28;;;;;;;;;;5049558;28;20482;-60
2022/08/07 06:59:24;;;;;;;8.30;3.67;;;;;;;;;;5031334;28;20048;-60
2022/08/07 07:01:50;;;;;;;;;;;;;;;;;;5049885;28;20045;-60
2022/08/07 07:04:17;;;;;;;6.80;3.53;;;;;;;;;;5050127;28;19990;-60
2022/08/07 07:06:43;;;;;;;7.03;4.10;;;17.30;99.90;;;;;;5031385;28;20056;-59
2022/08/07 07:09:23;;;;;;;7.38;3.58;;;17.30;99.90;;;;;;5050314;28;20049;-59
2022/08/07 07:12:16;;;;;;;6.30;3.25;;;17.30;99.90;;;;;;5014967;28;20059;-59
2022/08/07 07:14:54;;;;;;;4.90;2.88;;;17.80;99.90;;;;;;5031678;28;20116;-59
2022/08/07 07:17:26;;;;;;;6.80;3.78;;;17.20;99.90;;;;;;5032393;28;20386;-58
2022/08/07 07:19:58;;;;;;;6.90;4.10;;;17.60;99.90;;;;;;5014387;28;20049;-59
2022/08/07 07:22:26;;;;;;;7.65;3.60;;;17.70;99.90;;;;;;5025781;28;20214;-60
2022/08/07 07:24:53;;;;;;;6.40;3.88;;;17.90;99.90;;;;;;5038091;28;20382;-59
2022/08/07 07:27:22;;;;;;;8.40;4.50;;;17.60;99.90;;;;;;5049168;28;20040;-59
2022/08/07 07:29:53;;;;;;;6.65;4.05;;;17.80;99.90;;;;;;5014681;28;20046;-59
2022/08/07 07:32:22;;;;;;;8.93;5.60;;;18.20;99.90;;;;;;5029801;28;20041;-59
2022/08/07 07:34:52;;;;;;;7.60;4.63;;;18.10;99.90;;;;;;5029289;28;20040;-59
2022/08/07 07:37:21;;;;;;;7.47;4.38;;;18.00;99.90;;;;;;5028623;28;20553;-60
2022/08/07 07:39:50;;;;;;;8.05;4.03;;;18.10;99.90;;;;;;5028226;28;20095;-60
2022/08/07 07:42:18;;;;;;;7.43;4.43;;;18.20;99.90;;;;;;5027418;28;20067;-59
2022/08/07 07:44:45;;;;;;;7.07;4.93;;;18.20;99.90;;;;;;5041880;28;20077;-59
2022/08/07 07:47:14;;;;;;;8.73;5.60;;;18.20;99.90;;;;;;5024459;28;20050;-59
2022/08/07 07:49:41;;;;;;;7.80;4.70;;;18.30;99.90;;;;;;5020836;28;20091;-59
2022/08/07 07:52:09;;;;;;;8.63;4.80;;;18.30;99.90;;;;;;5020711;28;20051;-59
2022/08/07 07:54:35;;;;;;;7.07;4.85;;;18.40;99.90;;;;;;5028264;28;20501;-60
2022/08/07 07:57:02;;;;;;;8.27;4.43;;;18.40;99.90;;;;;;5029196;28;20047;-59
2022/08/07 07:59:29;;;;;;;7.03;4.68;;;18.90;99.90;;;;;;5029416;28;20033;-59
2022/08/07 08:01:57;;;;;;;7.30;4.30;;;18.50;99.90;;;;;;5023814;28;20049;-59
2022/08/07 08:04:25;;;;;;;6.15;4.20;;;18.50;99.90;;;;;;5009796;28;20049;-60
2022/08/07 08:06:51;;;;;;;7.53;4.65;;;18.50;99.90;;;;;;5011978;28;20041;-59
2022/08/07 08:09:20;;;;;;;6.72;4.50;;;18.40;99.90;;;;;;5045707;28;20040;-59
2022/08/07 08:11:46;;;;;;;6.38;3.38;;;18.60;99.90;;;;;;5047056;28;20463;-59
2022/08/07 08:14:12;;;;;;;6.68;4.00;;;18.70;99.90;;;;;;5024859;28;20120;-59
2022/08/07 08:16:41;;;;;;;6.72;4.07;;;18.80;99.90;;;;;;5027735;28;20125;-59
2022/08/07 08:19:13;;;;;;;6.90;4.15;;;18.60;99.90;;;;;;5011639;28;20128;-60
2022/08/07 08:27:17;;;;;;;7.70;4.30;;;18.70;99.90;;;;;;5003350;28;20041;-60
2022/08/07 08:29:48;;;;;;;7.50;3.95;;;;;;;;;;5017649;28;20060;-59
2022/08/07 08:32:22;;;;;;;16.60;5.43;;;19.10;99.90;;;;;;5033713;28;20045;-59
2022/08/07 08:34:49;;;;;;;8.10;4.25;;;19.20;99.90;;;;;;4998612;28;20099;-60
2022/08/07 08:37:17;;;;;;;6.40;3.92;;;19.10;99.90;;;;;;5031755;28;20037;-59
2022/08/07 08:39:48;;;;;;;8.63;3.83;;;19.50;99.90;;;;;;5016736;28;20076;-60
2022/08/07 08:42:41;;;;;;;6.28;3.47;;;19.40;99.90;;;;;;5035314;28;20053;-59
2022/08/07 08:45:27;;;;;;;6.05;3.22;;;19.40;99.90;;;;;;5033933;28;20512;-59
2022/08/07 08:48:28;;;;;;;6.28;3.45;;;19.20;99.90;;;;;;5034544;28;20039;-59
2022/08/07 08:51:03;;;;;;;7.05;3.92;;;19.20;99.90;;;;;;5023479;28;20359;-59
2022/08/07 08:53:37;;;;;;;7.93;3.53;;;21.30;99.90;;;;;;4997683;28;20052;-59
2022/08/07 08:56:10;;;;;;;6.45;3.72;;;19.20;99.90;;;;;;5027770;28;20049;-59
2022/08/07 08:58:52;;;;;;;10.97;3.60;;;19.60;99.90;;;;;;5034102;28;20490;-59
2022/08/07 09:01:44;;;;;;;6.88;3.63;;;19.40;99.90;;;;;;5035156;28;20268;-59
2022/08/07 09:04:37;;;;;;;6.50;3.92;;;19.80;99.90;;;;;;5003389;28;20049;-59
2022/08/07 09:07:41;;;;;;;7.88;4.05;;;20.10;99.90;;;;;;5014556;28;20053;-59
2022/08/07 09:10:16;;;;;;;7.97;3.97;;;20.20;99.90;;;;;;5016234;28;20077;-59
2022/08/07 09:13:00;;;;;;;10.52;4.53;;;20.00;99.90;;;;;;5016057;28;20049;-59
2022/08/07 09:16:07;;;;;;;7.37;4.20;;;20.10;99.90;;;;;;5034539;28;20046;-59
2022/08/07 09:18:59;;;;;;;6.95;3.67;;;20.10;99.90;;;;;;4934706;29;20391;-59
2022/08/07 09:21:25;;;;;;;6.82;3.75;;;;;;;;;;4933707;28;20051;-58
2022/08/07 09:24:11;;;;;;;5.25;3.10;;;20.10;99.90;;;;;;5009974;28;20049;-59
2022/08/07 09:27:04;;;;;;;7.22;3.53;;;21.10;99.90;;;;;;5044205;28;20111;-59
2022/08/07 09:30:03;;;;;;;6.57;3.80;;;21.00;99.90;;;;;;5032569;28;20067;-59
2022/08/07 09:33:06;;;;;;;6.80;3.45;;;20.40;99.90;;;;;;5030826;28;20053;-59
2022/08/07 09:35:42;;;;;;;6.70;3.65;;;20.60;99.90;;;;;;5028905;28;20068;-59
2022/08/07 09:38:12;;;;;;;5.25;3.42;;;;;;;;;;5033939;28;20158;-59
2022/08/07 09:41:08;;;;;;;4.95;2.90;;;20.50;99.90;;;;;;5059999;28;20084;-59
2022/08/07 09:44:04;;;;;;;6.07;3.35;;;20.30;99.90;;;;;;5052501;28;20545;-59
2022/08/07 09:46:31;;;;;;;11.27;3.45;;;;;;;;;;5048660;28;20339;-59
2022/08/07 09:49:11;;;;;;;5.15;2.53;;;20.40;99.90;;;;;;5048301;28;20067;-59
2022/08/07 09:51:51;;;;;;;5.90;3.13;;;20.60;99.90;;;;;;5049756;28;20041;-59
2022/08/07 09:54:33;;;;;;;7.07;2.83;;;20.50;99.90;;;;;;5032800;28;20045;-59
2022/08/07 09:57:29;;;;;;;5.35;2.72;;;20.60;99.90;;;;;;5051201;28;20149;-59
2022/08/07 10:00:15;;;;;;;6.90;3.42;;;20.70;99.90;;;;;;5032246;28;20076;-59
2022/08/07 10:03:07;;;;;;;5.68;3.05;;;20.80;99.90;;;;;;5050341;28;20043;-59
2022/08/07 10:06:02;;;;;;;6.90;2.85;;;21.00;99.90;;;;;;5032686;28;20080;-59
2022/08/07 10:08:42;;;;;;;;;;;20.60;99.70;;;;;;5050587;28;20767;-59
2022/08/07 10:11:20;;;;;;;4.75;2.17;;;20.50;99.90;;;;;;5033024;28;19921;-59
2022/08/07 10:14:22;;;;;;;5.45;2.70;;;20.10;99.90;;;;;;5029667;28;20122;-60
2022/08/07 10:17:10;;;;;;;4.95;2.00;;;20.60;99.90;;;;;;5031735;28;20041;-59
2022/08/07 10:20:10;;;;;;;5.30;2.78;;;20.80;99.90;;;;;;5050476;28;20164;-59
2022/08/07 10:23:07;;;;;;;7.22;2.88;;;21.30;99.90;;;;;;5049581;28;20187;-59
2022/08/07 10:25:56;;;;;;;6.43;3.38;;;21.90;99.90;;;;;;5026690;28;20041;-59
2022/08/07 10:28:22;;;;;;;7.10;3.00;;;;;;;;;;5029472;28;20041;-59
2022/08/07 10:31:21;;;;;;;6.13;3.10;;;21.20;99.90;;;;;;5049830;28;20039;-59
2022/08/07 10:33:56;;;;;;;6.20;3.10;;;20.70;98.80;;;;;;5014983;28;20114;-59
2022/08/07 10:36:22;;;;;;;5.15;2.50;;;;;;;;;;5015301;28;20041;-60
2022/08/07 10:38:58;;;;;;;7.97;3.10;;;20.40;99.20;;;;;;5032085;28;20471;-60
2022/08/07 10:41:54;;;;;;;5.85;2.97;;;20.40;99.20;;;;;;5050164;28;20041;-61
2022/08/07 10:44:33;;;;;;;6.53;2.63;;;20.70;99.90;;;;;;5020896;28;20075;-59
2022/08/07 10:47:28;;;;;;;5.20;2.53;;;20.40;99.90;;;;;;5032206;28;20094;-60
2022/08/07 10:50:11;;;;;;;7.20;3.42;;;20.90;99.90;;;;;;5015919;28;20114;-61
2022/08/07 10:53:04;;;;;;;6.85;2.75;;;20.30;99.90;;;;;;5031060;28;20090;-60
2022/08/07 10:56:02;;;;;;;6.22;2.88;;;20.40;99.90;;;;;;5050201;28;20040;-60
2022/08/07 10:58:49;;;;;;;6.15;3.25;;;20.30;99.90;;;;;;5031095;28;20171;-60
2022/08/07 11:01:38;;;;;;;5.80;3.22;;;19.80;99.90;;;;;;5029869;28;20041;-60
2022/08/07 11:04:20;;;;;;;5.47;2.42;;;20.00;99.90;;;;;;5023441;28;20053;-59
2022/08/07 11:07:05;;;;;;;7.20;3.17;;;20.10;99.90;;;;;;5032322;28;20049;-59
2022/08/07 11:09:38;;;;;;;6.75;2.65;;;20.00;99.90;;;;;;5049905;28;20044;-60
2022/08/07 11:12:15;;;;;;;6.03;3.20;;;20.10;99.90;;;;;;5028320;28;20123;-60
2022/08/07 11:14:52;;;;;;;5.82;2.85;;;20.70;99.90;;;;;;5047669;28;20037;-60
2022/08/07 11:17:24;;;;;;;6.70;3.33;;;20.60;99.90;;;;;;5031339;28;20044;-59
2022/08/07 11:20:05;;;;;;;6.20;2.90;;;20.80;99.90;;;;;;5045577;28;20045;-60
2022/08/07 11:22:40;;;;;;;6.28;2.85;;;20.70;99.90;;;;;;5026846;28;20057;-60
2022/08/07 11:25:29;;;;;;;5.00;1.98;;;20.90;99.40;;;;;;5042390;28;20371;-60
2022/08/07 11:28:07;;;;;;;5.32;2.65;;;21.20;99.10;;;;;;5013531;28;20057;-60
2022/08/07 11:30:51;;;;;;;5.65;2.50;;;21.40;99.90;;;;;;5048932;28;20063;-60
2022/08/07 11:33:26;;;;;;;5.17;2.60;;;20.90;99.90;;;;;;5030421;28;20040;-59
2022/08/07 11:36:37;;;;;;;5.25;2.40;;;21.30;96.80;;;;;;5029896;28;20057;-59
2022/08/07 11:39:10;;;;;;;4.13;2.15;;;21.10;97.30;;;;;;5003920;28;20064;-59
2022/08/07 11:41:49;;;;;;;5.00;2.08;;;20.90;98.10;;;;;;5049199;28;20041;-59
2022/08/07 11:44:31;;;;;;;6.05;2.47;;;20.70;99.30;;;;;;5049203;28;20119;-59
2022/08/07 11:47:14;;;;;;;4.30;1.92;;;20.60;99.80;;;;;;5044382;28;20617;-60
2022/08/07 11:50:10;;;;;;;4.40;1.90;;;20.60;98.30;;;;;;5048725;28;20110;-59
2022/08/07 11:52:54;;;;;;;6.30;2.00;;;20.70;98.00;;;;;;5061407;28;20120;-59
2022/08/07 11:55:28;;;;;;;6.35;2.05;;;20.90;98.80;;;;;;5034302;28;20044;-59
2022/08/07 11:58:19;;;;;;;5.70;2.08;;;21.10;97.60;;;;;;5050675;28;20052;-60
2022/08/07 12:00:55;;;;;;;3.97;1.75;;;21.20;96.70;;;;;;5032568;28;20035;-60
2022/08/07 12:03:44;;;;;;;4.25;1.70;;;21.20;95.70;;;;;;5028377;28;20545;-60
2022/08/07 12:06:20;;;;;;;3.05;1.38;;;21.20;94.60;;;;;;5038615;28;20047;-60
2022/08/07 12:09:00;;;;;;;4.22;1.60;;;21.00;94.00;;;;;;5022719;28;20047;-60
2022/08/07 12:11:34;;;;;;;4.63;2.30;;;20.80;94.60;;;;;;5027793;28;20133;-60
2022/08/07 12:14:10;;;;;;;3.67;1.58;;;20.70;96.00;;;;;;5011069;28;20116;-60
2022/08/07 12:16:42;;;;;;;3.42;1.58;;;20.70;95.10;;;;;;5044512;28;20049;-60
2022/08/07 12:19:42;;;;;;;6.50;1.77;;;20.90;94.00;;;;;;5049025;28;20048;-60
2022/08/07 12:22:10;;;;;;;3.45;1.35;;;21.20;92.00;;;;;;5030549;28;20057;-61
2022/08/07 12:27:45;;;;;;;4.40;1.48;;;21.60;90.80;;;;;;5028400;28;20049;-61
2022/08/07 12:30:12;;;;;;;2.92;1.63;;;21.70;89.50;;;;;;5052993;28;20496;-62
2022/08/07 12:32:59;;;;;;;3.78;1.83;;;21.90;89.10;;;;;;5068631;28;20128;-60
2022/08/07 12:35:30;;;;;;;3.22;1.67;;;22.00;87.70;;;;;;5038930;28;20040;-60
2022/08/07 12:37:57;;;;;;;5.63;2.45;;;21.90;86.60;;;;;;5061902;28;20508;-60
2022/08/07 12:40:27;;;;;;;3.90;1.80;;;21.90;85.30;;;;;;5041156;28;20041;-61
2022/08/07 12:42:57;;;;;;;3.28;1.52;;;22.10;94.60;;;;;;5043526;28;20067;-60
2022/08/07 12:45:28;;;;;;;4.65;1.77;;;22.10;97.00;;;;;;5068279;28;20385;-60
2022/08/07 12:48:17;;;;;;;5.13;1.80;;;22.60;95.80;;;;;;5057612;28;20145;-60
2022/08/07 12:50:54;;;;;;;4.15;1.90;;;21.60;97.00;;;;;;5049839;28;20409;-61
2022/08/07 12:53:32;;;;;;;5.13;2.00;;;22.10;83.50;;;;;;5029217;28;20502;-63
2022/08/07 12:56:13;;;;;;;3.97;1.70;;;22.10;97.20;;;;;;5022108;28;20049;-62
2022/08/07 12:58:44;;;;;;;5.15;2.20;;;22.10;96.50;;;;;;5020586;28;20046;-61
2022/08/07 13:01:23;;;;;;;5.25;2.53;;;22.20;81.00;;;;;;5034288;28;20037;-62
2022/08/07 13:04:28;;;;;;;5.90;2.33;;;22.50;96.20;;;;;;5034625;28;20494;-63
2022/08/07 13:07:13;;;;;;;;;;;22.50;79.20;;;;;;5017418;28;20395;-62
2022/08/07 13:10:02;;;;;;;7.10;2.70;;;22.70;96.20;;;;;;5034479;28;20436;-62
2022/08/07 13:12:50;;;;;;;8.30;2.67;;;22.50;96.70;;;;;;5033961;28;20120;-60
2022/08/07 13:15:39;;;;;;;6.32;2.70;;;22.60;84.10;;;;;;5034734;28;20042;-62
2022/08/07 13:18:31;;;;;;;5.10;2.30;;;22.30;85.30;;;;;;5006795;28;20060;-60
2022/08/07 13:21:08;;;;;;;7.90;2.78;;;22.10;87.10;;;;;;5013449;28;20049;-60
2022/08/07 13:23:41;;;;;;;6.68;3.15;;;21.80;89.30;;;;;;5016789;28;20085;-61
2022/08/07 13:26:16;;;;;;;5.32;2.58;;;21.80;88.80;;;;;;5033565;28;20053;-63
2022/08/07 13:28:54;;;;;;;5.25;2.55;;;21.50;88.80;;;;;;5016719;28;20127;-62
2022/08/07 13:31:34;;;;;;;4.95;2.58;;;21.40;90.40;;;;;;5034606;28;20045;-62
2022/08/07 13:34:22;;;;;;;6.18;3.13;;;21.30;90.80;;;;;;5033341;28;20045;-61
2022/08/07 13:36:58;;;;;;;5.57;2.63;;;21.30;90.70;;;;;;5034372;28;20033;-63
2022/08/07 13:39:49;;;;;;;5.03;2.97;;;21.40;90.80;;;;;;5033308;28;20053;-61